EPGD/GDN METAR and TAF weather

Enter ICAO airport designator
Station Type Date Time Source
EPGD METAR 2019/10/16 19:00 UTC NOAA

EPGD 161900Z 22015KT 9999 FEW006 OVC010 12/10 Q1006


Station Type Date Time Source
EPGD Decoded METAR 2019/10/16 19:00 UTC NOAA

Gdansk-Rebiechowo, Poland (EPGD) 54-23N 018-28E 138M
Oct 16, 2019 - 03:00 PM EDT / 2019.10.16 1900 UTC
Wind: from the SW (220 degrees) at 17 MPH (15 KT):0
Visibility: greater than 7 mile(s):0
Sky conditions: overcast
Temperature: 53 F (12 C)
Dew Point: 50 F (10 C)
Relative Humidity: 87%
Pressure (altimeter): 29.71 in. Hg (1006 hPa)
ob: EPGD 161900Z 22015KT 9999 FEW006 OVC010 12/10 Q1006
cycle: 19

Station Type Date Time Source
EPGD TAF 2019/10/16 18:33 UTC NOAA

TAF TAF EPGD 161730Z 1618/1718 22010KT 8000 BKN012
TEMPO 1618/1706 23017G30KT 4000 -RA BR BKN007 PROB40
TEMPO 1618/1702 2000 RA BR BKN003
BECMG 1709/1712 BKN020

Example: see airport list